createdAt,value
2019-03-27T00:01:59.109Z,6.90
2019-03-27T00:04:28.666Z,6.90
2019-03-27T00:06:57.814Z,6.90
2019-03-27T00:09:27.142Z,6.80
2019-03-27T00:11:56.729Z,6.80
2019-03-27T00:14:26.052Z,6.80
2019-03-27T00:16:55.127Z,6.70
2019-03-27T00:19:24.219Z,6.80
2019-03-27T00:21:53.315Z,6.80
2019-03-27T00:24:22.398Z,6.80
2019-03-27T00:26:51.739Z,6.80
2019-03-27T00:29:20.794Z,6.70
2019-03-27T00:31:49.906Z,6.70
2019-03-27T00:34:19.451Z,6.70
2019-03-27T00:36:48.862Z,6.70
2019-03-27T00:39:18.074Z,6.70
2019-03-27T00:41:47.219Z,6.60
2019-03-27T00:44:16.534Z,6.60
2019-03-27T00:46:45.863Z,6.60
2019-03-27T00:49:15.000Z,6.50
2019-03-27T00:51:44.097Z,6.50
2019-03-27T00:54:13.190Z,6.50
2019-03-27T00:56:42.301Z,6.40
2019-03-27T00:59:11.386Z,6.40
2019-03-27T01:01:40.807Z,6.30
2019-03-27T01:04:10.114Z,6.20
2019-03-27T01:06:39.179Z,6.20
2019-03-27T01:09:08.259Z,6.10
2019-03-27T01:11:37.835Z,6.10
2019-03-27T01:14:07.186Z,6.10
2019-03-27T01:16:36.490Z,6.10
2019-03-27T01:19:05.649Z,6.00
2019-03-27T01:21:34.979Z,6.00
2019-03-27T01:24:04.294Z,6.00
2019-03-27T01:26:33.930Z,5.90
2019-03-27T01:29:03.087Z,5.90
2019-03-27T01:31:32.378Z,5.90
2019-03-27T01:34:01.695Z,5.80
2019-03-27T01:36:30.762Z,5.80
2019-03-27T01:39:00.083Z,5.80
2019-03-27T01:41:29.142Z,5.70
2019-03-27T01:43:58.254Z,5.60
2019-03-27T01:46:27.347Z,5.50
2019-03-27T01:48:56.680Z,5.50
2019-03-27T01:51:25.734Z,5.50
2019-03-27T01:53:54.833Z,5.50
2019-03-27T01:56:24.189Z,5.40
2019-03-27T01:58:53.726Z,5.40
2019-03-27T02:01:22.830Z,5.40
2019-03-27T02:03:52.177Z,5.40
2019-03-27T02:06:21.265Z,5.30
2019-03-27T02:08:50.559Z,5.30
2019-03-27T02:11:19.610Z,5.30
2019-03-27T02:13:48.730Z,5.20
2019-03-27T02:16:17.827Z,5.20
2019-03-27T02:18:47.170Z,5.20
2019-03-27T02:21:16.434Z,5.20
2019-03-27T02:23:45.519Z,5.10
2019-03-27T02:26:14.623Z,5.10
2019-03-27T02:28:43.931Z,5.00
2019-03-27T02:31:13.495Z,4.90
2019-03-27T02:33:42.851Z,4.90
2019-03-27T02:36:12.165Z,4.80
2019-03-27T02:38:41.675Z,4.80
2019-03-27T02:41:10.970Z,4.80
2019-03-27T02:43:40.331Z,4.80
2019-03-27T02:46:23.684Z,4.80
2019-03-27T02:48:40.511Z,4.70
2019-03-27T02:51:09.573Z,4.70
2019-03-27T02:53:38.905Z,4.70
2019-03-27T02:56:08.457Z,4.60
2019-03-27T02:58:37.546Z,4.60
2019-03-27T03:01:06.663Z,4.60
2019-03-27T03:03:35.967Z,4.60
2019-03-27T03:06:05.075Z,4.60
2019-03-27T03:08:34.413Z,4.50
2019-03-27T03:11:03.679Z,4.50
2019-03-27T03:13:32.751Z,4.40
2019-03-27T03:16:02.083Z,4.40
2019-03-27T03:18:31.398Z,4.40
2019-03-27T03:21:00.699Z,4.30
2019-03-27T03:23:29.741Z,4.30
2019-03-27T03:25:58.919Z,4.20
2019-03-27T03:28:28.038Z,4.20
2019-03-27T03:30:57.136Z,4.10
2019-03-27T03:33:26.244Z,4.00
2019-03-27T03:35:55.784Z,4.00
2019-03-27T03:38:25.096Z,4.00
2019-03-27T03:40:54.141Z,4.00
2019-03-27T03:43:23.238Z,3.90
2019-03-27T03:45:52.559Z,3.90
2019-03-27T03:48:21.900Z,3.90
2019-03-27T03:50:51.296Z,3.80
2019-03-27T03:53:20.433Z,3.80
2019-03-27T03:55:49.531Z,3.70
2019-03-27T03:58:18.872Z,3.70
2019-03-27T04:00:47.923Z,3.70
2019-03-27T04:03:17.266Z,3.60
2019-03-27T04:05:46.596Z,3.60
2019-03-27T04:08:15.743Z,3.60
2019-03-27T04:10:45.145Z,3.60
2019-03-27T04:13:14.595Z,3.50
2019-03-27T04:15:43.802Z,3.50
2019-03-27T04:18:12.947Z,3.50
2019-03-27T04:20:42.019Z,3.50
2019-03-27T04:23:11.347Z,3.50
2019-03-27T04:26:06.972Z,3.50
2019-03-27T04:28:11.526Z,3.40
2019-03-27T04:30:40.899Z,3.40
2019-03-27T04:33:10.204Z,3.40
2019-03-27T04:35:39.274Z,3.40
2019-03-27T04:38:08.830Z,3.40
2019-03-27T04:40:38.206Z,3.40
2019-03-27T04:43:07.847Z,3.40
2019-03-27T04:45:36.974Z,3.40
2019-03-27T04:48:06.098Z,3.40
2019-03-27T04:50:35.411Z,3.30
2019-03-27T04:53:04.502Z,3.30
2019-03-27T04:55:34.158Z,3.30
2019-03-27T04:58:03.873Z,3.30
2019-03-27T05:00:33.294Z,3.30
2019-03-27T05:03:02.699Z,3.20
2019-03-27T05:05:31.786Z,3.20
2019-03-27T05:08:01.184Z,3.20
2019-03-27T05:10:30.752Z,3.20
2019-03-27T05:12:59.790Z,3.20
2019-03-27T05:15:29.207Z,3.20
2019-03-27T05:17:58.298Z,3.20
2019-03-27T05:20:28.825Z,3.20
2019-03-27T05:22:58.020Z,3.20
2019-03-27T05:25:27.382Z,3.20
2019-03-27T05:27:56.647Z,3.20
2019-03-27T05:30:28.750Z,3.20
2019-03-27T05:32:57.961Z,3.20
2019-03-27T05:35:27.098Z,3.10
2019-03-27T05:37:56.267Z,3.10
2019-03-27T05:40:25.394Z,3.20
2019-03-27T05:43:00.868Z,3.20
2019-03-27T05:45:26.159Z,3.20
2019-03-27T05:47:59.766Z,3.20
2019-03-27T05:50:26.281Z,3.20
2019-03-27T05:52:55.842Z,3.20
2019-03-27T05:55:26.614Z,3.20
2019-03-27T05:57:56.506Z,3.20
2019-03-27T06:00:25.951Z,3.20
2019-03-27T06:02:55.029Z,3.20
2019-03-27T06:05:24.134Z,3.20
2019-03-27T06:07:53.522Z,3.20
2019-03-27T06:10:22.554Z,3.20
2019-03-27T06:12:51.606Z,3.30
2019-03-27T06:15:20.722Z,3.30
2019-03-27T06:17:49.811Z,3.40
2019-03-27T06:20:19.247Z,3.40
2019-03-27T06:22:48.302Z,3.40
2019-03-27T06:25:17.414Z,3.50
2019-03-27T06:27:46.500Z,3.60
2019-03-27T06:30:15.775Z,3.60
2019-03-27T06:32:44.890Z,3.70
2019-03-27T06:35:14.003Z,3.80
2019-03-27T06:37:43.395Z,3.80
2019-03-27T06:40:12.560Z,3.90
2019-03-27T06:42:41.683Z,4.00
2019-03-27T06:45:10.796Z,4.00
2019-03-27T06:47:40.129Z,4.10
2019-03-27T06:50:09.190Z,4.20
2019-03-27T06:52:38.270Z,4.20
2019-03-27T06:55:08.499Z,4.30
2019-03-27T06:57:37.592Z,4.30
2019-03-27T07:00:07.831Z,4.40
2019-03-27T07:02:37.371Z,4.50
2019-03-27T07:05:07.026Z,4.60
2019-03-27T07:07:36.355Z,4.60
2019-03-27T07:10:05.738Z,4.70
2019-03-27T07:12:34.778Z,4.80
2019-03-27T07:15:04.160Z,4.90
2019-03-27T07:17:33.544Z,5.10
2019-03-27T07:20:02.640Z,5.20
2019-03-27T07:22:31.722Z,6.10
2019-03-27T07:25:01.115Z,7.70
2019-03-27T07:27:30.230Z,9.20
2019-03-27T07:29:59.851Z,10.50
2019-03-27T07:32:28.938Z,11.30
2019-03-27T07:34:58.267Z,11.90
2019-03-27T07:37:27.330Z,12.40
2019-03-27T07:39:56.891Z,12.80
2019-03-27T07:42:28.744Z,13.00
2019-03-27T07:44:56.866Z,12.70
2019-03-27T07:47:25.984Z,11.90
2019-03-27T07:49:55.563Z,11.20
2019-03-27T07:52:24.674Z,10.50
2019-03-27T07:54:53.762Z,9.90
2019-03-27T07:57:23.090Z,9.50
2019-03-27T07:59:52.627Z,9.20
2019-03-27T08:02:22.035Z,9.00
2019-03-27T08:04:51.163Z,8.80
2019-03-27T08:07:26.693Z,8.70
2019-03-27T08:09:51.095Z,8.70
2019-03-27T08:12:20.715Z,8.60
2019-03-27T08:14:49.808Z,8.60
2019-03-27T08:17:19.134Z,8.60
2019-03-27T08:19:48.426Z,8.50
2019-03-27T08:22:17.510Z,8.60
2019-03-27T08:24:46.918Z,8.60
2019-03-27T08:27:16.026Z,8.60
2019-03-27T08:29:45.099Z,8.70
2019-03-27T08:32:14.203Z,8.70
2019-03-27T08:34:43.281Z,8.80
2019-03-27T08:37:12.706Z,8.80
2019-03-27T08:39:42.299Z,8.90
2019-03-27T08:42:11.630Z,9.00
2019-03-27T08:44:40.705Z,9.10
2019-03-27T08:47:09.820Z,9.20
2019-03-27T08:49:38.880Z,9.30
2019-03-27T08:52:07.984Z,9.40
2019-03-27T08:54:37.091Z,9.40
2019-03-27T08:57:06.496Z,9.50
2019-03-27T08:59:35.582Z,9.60
2019-03-27T09:02:04.675Z,9.80
2019-03-27T09:04:33.774Z,10.00
2019-03-27T09:07:02.866Z,10.00
2019-03-27T09:09:31.971Z,10.10
2019-03-27T09:12:03.828Z,10.20
2019-03-27T09:14:33.118Z,10.30
2019-03-27T09:17:02.712Z,10.30
2019-03-27T09:19:35.973Z,10.40
2019-03-27T09:22:03.002Z,10.50
2019-03-27T09:24:32.311Z,10.70
2019-03-27T09:27:01.459Z,10.90
2019-03-27T09:29:31.103Z,11.20
2019-03-27T09:32:01.428Z,11.40
2019-03-27T09:34:30.522Z,11.70
2019-03-27T09:36:59.590Z,12.00
2019-03-27T09:39:28.699Z,12.30
2019-03-27T09:41:57.787Z,12.10
2019-03-27T09:44:27.404Z,11.90
2019-03-27T09:46:56.744Z,11.60
2019-03-27T09:49:26.058Z,11.40
2019-03-27T09:51:56.114Z,11.20
2019-03-27T09:54:25.214Z,11.00
2019-03-27T09:56:54.537Z,10.80
2019-03-27T09:59:23.887Z,10.80
2019-03-27T10:01:53.935Z,10.70
2019-03-27T10:04:23.040Z,10.60
2019-03-27T10:06:52.122Z,10.70
2019-03-27T10:09:21.222Z,10.70
2019-03-27T10:11:50.623Z,10.70
2019-03-27T10:14:19.666Z,10.80
2019-03-27T10:16:48.987Z,10.80
2019-03-27T10:19:18.373Z,10.80
2019-03-27T10:21:47.406Z,10.90
2019-03-27T10:24:16.522Z,10.90
2019-03-27T10:26:46.174Z,11.20
2019-03-27T10:29:15.474Z,11.80
2019-03-27T10:31:44.518Z,12.40
2019-03-27T10:34:13.934Z,12.70
2019-03-27T10:36:43.016Z,12.70
2019-03-27T10:39:12.130Z,12.70
2019-03-27T10:41:41.458Z,12.60
2019-03-27T10:44:10.755Z,12.40
2019-03-27T10:46:40.276Z,12.20
2019-03-27T10:49:09.336Z,12.10
2019-03-27T10:51:38.933Z,11.90
2019-03-27T10:54:08.035Z,11.70
2019-03-27T10:56:37.378Z,11.60
2019-03-27T10:59:06.509Z,11.50
2019-03-27T11:01:35.631Z,11.40
2019-03-27T11:04:04.706Z,11.30
2019-03-27T11:06:34.051Z,11.30
2019-03-27T11:09:04.779Z,11.30
2019-03-27T11:11:34.096Z,11.30
2019-03-27T11:14:03.146Z,11.20
2019-03-27T11:16:32.251Z,11.20
2019-03-27T11:19:01.350Z,11.30
2019-03-27T11:21:30.658Z,11.30
2019-03-27T11:23:59.991Z,11.30
2019-03-27T11:26:29.134Z,11.40
2019-03-27T11:28:58.400Z,11.40
2019-03-27T11:31:27.543Z,11.40
2019-03-27T11:33:57.148Z,11.50
2019-03-27T11:36:26.467Z,11.60
2019-03-27T11:38:55.532Z,11.70
2019-03-27T11:41:24.640Z,11.90
2019-03-27T11:43:55.114Z,12.00
2019-03-27T11:46:24.750Z,12.30
2019-03-27T11:48:53.879Z,12.50
2019-03-27T11:51:23.195Z,12.70
2019-03-27T11:53:52.564Z,12.90
2019-03-27T11:56:21.934Z,12.90
2019-03-27T11:58:51.548Z,13.10
2019-03-27T12:01:20.684Z,13.20
2019-03-27T12:03:49.765Z,13.20
2019-03-27T12:06:18.872Z,13.20
2019-03-27T12:08:50.689Z,13.10
2019-03-27T12:11:19.024Z,13.10
2019-03-27T12:13:48.359Z,13.10
2019-03-27T12:16:17.386Z,13.20
2019-03-27T12:18:46.514Z,13.30
2019-03-27T12:21:15.579Z,13.30
2019-03-27T12:23:44.926Z,13.30
2019-03-27T12:26:13.994Z,13.10
2019-03-27T12:28:43.638Z,13.00
2019-03-27T12:31:12.694Z,12.90
2019-03-27T12:33:41.795Z,12.70
2019-03-27T12:36:11.142Z,12.70
2019-03-27T12:38:40.526Z,12.60
2019-03-27T12:41:09.855Z,12.50
2019-03-27T12:43:39.003Z,12.50
2019-03-27T12:46:08.078Z,12.40
2019-03-27T12:48:37.458Z,12.40
2019-03-27T12:51:12.737Z,12.40
2019-03-27T12:53:37.902Z,12.40
2019-03-27T12:56:07.030Z,12.40
2019-03-27T12:58:36.136Z,12.40
2019-03-27T13:01:05.215Z,12.30
2019-03-27T13:03:34.554Z,12.30
2019-03-27T13:06:03.624Z,12.30
2019-03-27T13:08:32.718Z,12.30
2019-03-27T13:11:01.998Z,12.30
2019-03-27T13:13:31.291Z,12.30
2019-03-27T13:16:00.334Z,12.20
2019-03-27T13:18:29.447Z,12.20
2019-03-27T13:20:58.555Z,12.30
2019-03-27T13:23:28.182Z,12.40
2019-03-27T13:25:57.234Z,12.40
2019-03-27T13:28:26.339Z,12.40
2019-03-27T13:30:55.659Z,12.50
2019-03-27T13:33:25.002Z,12.40
2019-03-27T13:35:54.374Z,12.40
2019-03-27T13:38:23.670Z,12.40
2019-03-27T13:40:52.744Z,12.50
2019-03-27T13:43:22.086Z,12.50
2019-03-27T13:45:51.372Z,12.50
2019-03-27T13:48:20.697Z,12.60
2019-03-27T13:50:49.726Z,12.80
2019-03-27T13:53:19.131Z,13.20
2019-03-27T13:55:48.811Z,13.60
2019-03-27T13:58:18.316Z,14.10
2019-03-27T14:00:47.454Z,14.90
2019-03-27T14:03:16.603Z,15.50
2019-03-27T14:05:45.866Z,16.10
2019-03-27T14:08:14.950Z,16.30
2019-03-27T14:10:44.047Z,16.60
2019-03-27T14:13:13.099Z,16.90
2019-03-27T14:15:42.244Z,17.10
2019-03-27T14:18:11.319Z,17.40
2019-03-27T14:20:40.438Z,17.40
2019-03-27T14:23:09.519Z,17.60
2019-03-27T14:25:38.619Z,17.70
2019-03-27T14:28:08.033Z,18.00
2019-03-27T14:30:53.534Z,18.40
2019-03-27T14:33:22.583Z,18.80
2019-03-27T14:35:51.702Z,18.90
2019-03-27T14:38:20.778Z,18.80
2019-03-27T14:40:50.355Z,18.60
2019-03-27T14:43:19.487Z,18.50
2019-03-27T14:45:48.698Z,18.60
2019-03-27T14:48:17.815Z,18.60
2019-03-27T14:50:46.882Z,18.50
2019-03-27T14:53:15.974Z,18.30
2019-03-27T14:55:45.075Z,18.10
2019-03-27T14:58:14.398Z,18.10
2019-03-27T15:00:43.471Z,18.00
2019-03-27T15:03:12.798Z,18.00
2019-03-27T15:05:41.886Z,17.90
2019-03-27T15:08:11.235Z,17.80
2019-03-27T15:10:40.711Z,17.70
2019-03-27T15:13:09.998Z,17.40
2019-03-27T15:15:39.355Z,17.40
2019-03-27T15:18:08.718Z,17.30
2019-03-27T15:20:37.770Z,16.90
2019-03-27T15:23:07.422Z,16.40
2019-03-27T15:25:36.470Z,15.80
2019-03-27T15:28:05.830Z,15.30
2019-03-27T15:30:35.362Z,15.00
2019-03-27T15:33:04.495Z,14.70
2019-03-27T15:35:51.987Z,14.40
2019-03-27T15:38:21.150Z,14.30
2019-03-27T15:40:50.435Z,14.10
2019-03-27T15:43:19.838Z,13.90
2019-03-27T15:45:49.296Z,13.80
2019-03-27T15:48:18.698Z,13.70
2019-03-27T15:50:55.530Z,13.60
2019-03-27T15:53:18.862Z,13.60
2019-03-27T15:55:48.292Z,13.60
2019-03-27T15:58:17.366Z,13.90
2019-03-27T16:00:46.526Z,13.90
2019-03-27T16:03:15.991Z,13.80
2019-03-27T16:05:45.099Z,13.70
2019-03-27T16:08:14.524Z,13.60
2019-03-27T16:10:44.035Z,13.50
2019-03-27T16:13:13.182Z,13.40
2019-03-27T16:15:42.335Z,13.40
2019-03-27T16:18:11.466Z,13.30
2019-03-27T16:20:41.064Z,13.40
2019-03-27T16:23:10.167Z,13.30
2019-03-27T16:25:39.250Z,13.30
2019-03-27T16:28:08.364Z,13.30
2019-03-27T16:30:37.518Z,13.30
2019-03-27T16:33:07.051Z,13.20
2019-03-27T16:35:36.162Z,13.20
2019-03-27T16:38:05.254Z,13.20
2019-03-27T16:40:44.458Z,13.20
2019-03-27T16:43:13.971Z,13.20
2019-03-27T16:45:43.155Z,13.30
2019-03-27T16:48:12.321Z,13.30
2019-03-27T16:50:41.522Z,13.30
2019-03-27T16:53:10.863Z,13.30
2019-03-27T16:55:40.033Z,13.20
2019-03-27T16:58:09.198Z,13.20
2019-03-27T17:00:38.275Z,13.10
2019-03-27T17:03:07.636Z,13.00
2019-03-27T17:05:37.102Z,13.00
2019-03-27T17:08:06.206Z,12.90
2019-03-27T17:10:35.279Z,12.80
2019-03-27T17:13:04.851Z,12.70
2019-03-27T17:15:33.974Z,12.70
2019-03-27T17:18:03.410Z,12.60
2019-03-27T17:20:32.475Z,12.50
2019-03-27T17:23:01.585Z,12.40
2019-03-27T17:25:30.658Z,12.40
2019-03-27T17:27:59.772Z,12.30
2019-03-27T17:30:31.846Z,12.20
2019-03-27T17:32:59.711Z,12.10
2019-03-27T17:35:28.762Z,12.10
2019-03-27T17:37:57.902Z,12.00
2019-03-27T17:40:27.315Z,11.90
2019-03-27T17:42:56.547Z,11.80
2019-03-27T17:45:25.686Z,11.70
2019-03-27T17:47:55.083Z,11.70
2019-03-27T17:50:24.186Z,11.60
2019-03-27T17:52:53.352Z,11.50
2019-03-27T17:55:22.478Z,11.40
2019-03-27T17:57:51.920Z,11.30
2019-03-27T18:00:43.938Z,11.20
2019-03-27T18:03:13.298Z,11.10
2019-03-27T18:05:42.806Z,11.00
2019-03-27T18:08:11.935Z,11.00
2019-03-27T18:10:41.690Z,11.00
2019-03-27T18:13:11.611Z,10.90
2019-03-27T18:15:41.284Z,10.80
2019-03-27T18:18:10.366Z,10.70
2019-03-27T18:20:39.759Z,10.50
2019-03-27T18:23:09.425Z,10.50
2019-03-27T18:25:38.562Z,10.40
2019-03-27T18:28:07.676Z,10.30
2019-03-27T18:30:37.067Z,10.30
2019-03-27T18:33:06.166Z,10.20
2019-03-27T18:35:35.214Z,10.10
2019-03-27T18:38:04.986Z,10.10
2019-03-27T18:40:34.058Z,10.00
2019-03-27T18:43:03.538Z,9.90
2019-03-27T18:45:33.276Z,9.90
2019-03-27T18:48:02.723Z,9.80
2019-03-27T18:50:31.783Z,9.70
2019-03-27T18:53:00.874Z,9.60
2019-03-27T18:55:30.603Z,9.60
2019-03-27T18:58:00.748Z,9.50
2019-03-27T19:00:30.970Z,9.40
2019-03-27T19:03:00.560Z,9.40
2019-03-27T19:05:29.910Z,9.30
2019-03-27T19:07:59.035Z,9.30
2019-03-27T19:10:28.161Z,9.20
2019-03-27T19:13:16.731Z,9.20
2019-03-27T19:16:04.834Z,9.10
2019-03-27T19:18:53.179Z,9.00
2019-03-27T19:21:41.751Z,8.90
2019-03-27T19:24:29.868Z,8.90
2019-03-27T19:27:17.967Z,8.80
2019-03-27T19:30:06.255Z,8.70
2019-03-27T19:32:54.594Z,8.60
2019-03-27T19:35:42.777Z,8.60
2019-03-27T19:38:30.963Z,8.50
2019-03-27T19:41:19.067Z,8.40
2019-03-27T19:44:06.091Z,8.40
2019-03-27T19:46:54.200Z,8.30
2019-03-27T19:49:35.538Z,8.30
2019-03-27T19:52:16.496Z,8.20
2019-03-27T19:54:57.134Z,8.10
2019-03-27T20:00:23.119Z,8.00
2019-03-27T20:11:22.243Z,7.70
2019-03-27T20:14:02.574Z,7.70
2019-03-27T20:25:08.395Z,7.40
2019-03-27T20:27:51.190Z,7.40
2019-03-27T20:30:31.590Z,7.40
2019-03-27T20:33:12.155Z,7.30
2019-03-27T20:35:53.062Z,7.20
2019-03-27T20:38:33.710Z,7.20
2019-03-27T20:41:14.635Z,7.20
2019-03-27T20:43:55.339Z,7.20
2019-03-27T20:46:36.006Z,7.10
2019-03-27T20:49:16.331Z,7.10
2019-03-27T20:51:57.061Z,7.10
2019-03-27T20:54:37.887Z,7.10
2019-03-27T20:57:18.570Z,7.00
2019-03-27T20:59:59.571Z,6.90
2019-03-27T21:02:40.043Z,7.00
2019-03-27T21:05:20.464Z,6.90
2019-03-27T21:08:00.991Z,6.80
2019-03-27T21:10:41.815Z,6.80
2019-03-27T21:13:22.676Z,6.80
2019-03-27T21:16:03.066Z,6.70
2019-03-27T21:18:43.523Z,6.70
2019-03-27T21:21:24.219Z,6.70
2019-03-27T21:24:04.799Z,6.60
2019-03-27T21:26:45.295Z,6.60
2019-03-27T21:29:26.144Z,6.50
2019-03-27T21:32:06.866Z,6.40
2019-03-27T21:34:47.399Z,6.40
2019-03-27T21:37:27.823Z,6.30
2019-03-27T21:40:08.482Z,6.30
2019-03-27T21:42:49.127Z,6.30
2019-03-27T21:45:32.260Z,6.20
2019-03-27T21:48:12.584Z,6.20
2019-03-27T21:50:53.250Z,6.20
2019-03-27T21:53:33.716Z,6.20
2019-03-27T21:56:14.275Z,6.10
2019-03-27T21:58:54.874Z,6.10
2019-03-27T22:01:35.435Z,6.00
2019-03-27T22:04:16.434Z,6.00
2019-03-27T22:06:57.194Z,6.00
2019-03-27T22:09:37.794Z,5.90
2019-03-27T22:12:18.346Z,5.90
2019-03-27T22:14:58.827Z,5.90
2019-03-27T22:17:40.137Z,5.80
2019-03-27T22:20:21.242Z,5.80
2019-03-27T22:23:01.672Z,5.70
2019-03-27T22:25:42.439Z,5.70
2019-03-27T22:31:04.850Z,5.60
2019-03-27T22:33:45.478Z,5.50
2019-03-27T22:36:26.459Z,5.50
2019-03-27T22:39:06.775Z,5.50
2019-03-27T22:41:47.488Z,5.50
2019-03-27T22:44:28.191Z,5.40
2019-03-27T22:47:09.374Z,5.40
2019-03-27T22:49:49.705Z,5.40
2019-03-27T22:52:30.200Z,5.40
2019-03-27T22:55:09.414Z,5.40
2019-03-27T22:57:57.527Z,5.40
2019-03-27T23:01:04.741Z,5.40
2019-03-27T23:03:53.076Z,5.40
2019-03-27T23:06:41.185Z,5.40
2019-03-27T23:09:29.526Z,5.40
2019-03-27T23:12:17.635Z,5.40
2019-03-27T23:15:06.107Z,5.30
2019-03-27T23:17:54.211Z,5.30
2019-03-27T23:20:42.561Z,5.30
2019-03-27T23:23:30.659Z,5.30
2019-03-27T23:26:18.778Z,5.30
2019-03-27T23:29:06.882Z,5.30
2019-03-27T23:31:54.989Z,5.30
2019-03-27T23:34:43.327Z,5.20
2019-03-27T23:40:24.216Z,5.20
2019-03-27T23:46:05.095Z,5.20
